Terminal Aerodrome Forecast
Issued by NWS

Home | Current Version | Previous Version | Text Only | Print | Product List | Glossary On
Versions: 1 2 3 4 5 6 7 8 9 10 11 12 13 14 15 16 17 18 19 20 21 22 23 24 25 26 27 28
581
FTAK31 PAFA 241739
TAFAGA
TAF
PAGA 241739Z 2418/2518 26003KT P6SM OVC090
     FM242200 VRB05KT P6SM -SHRA VCTS SCT040 BKN080CB
     FM250600 VRB05KT P6SM SCT040 BKN080
     FM251200 00000KT P6SM SKC=

USA.gov is the U.S. government's official web portal to all federal, state and local government web resources and services.